sensor_id;sensor_type;location;lat;lon;timestamp;pressure;altitude;pressure_sealevel;temperature;humidity
75409;BME280;63979;55.644;37.734;2022-12-26T00:01:50;101464.72;;;-1.70;58.66
75409;BME280;63979;55.644;37.734;2022-12-26T00:06:51;101464.72;;;-1.73;59.02
75409;BME280;63979;55.644;37.734;2022-12-26T00:11:52;101442.75;;;-1.87;58.11
75409;BME280;63979;55.644;37.734;2022-12-26T00:16:53;101458.53;;;-1.78;59.29
75409;BME280;63979;55.644;37.734;2022-12-26T00:21:54;101456.78;;;-1.79;58.48
75409;BME280;63979;55.644;37.734;2022-12-26T00:26:56;101465.53;;;-1.77;59.13
75409;BME280;63979;55.644;37.734;2022-12-26T00:31:57;101473.44;;;-1.72;57.63
75409;BME280;63979;55.644;37.734;2022-12-26T00:36:58;101483.06;;;-1.67;57.77
75409;BME280;63979;55.644;37.734;2022-12-26T00:42:00;101453.22;;;-1.87;58.04
75409;BME280;63979;55.644;37.734;2022-12-26T00:47:00;101447.09;;;-1.92;59.25
75409;BME280;63979;55.644;37.734;2022-12-26T00:52:01;101489.22;;;-1.63;58.90
75409;BME280;63979;55.644;37.734;2022-12-26T00:57:02;101490.94;;;-1.65;58.58
75409;BME280;63979;55.644;37.734;2022-12-26T01:02:03;101502.31;;;-1.60;59.73
75409;BME280;63979;55.644;37.734;2022-12-26T01:07:24;101499.72;;;-1.55;59.41
75409;BME280;63979;55.644;37.734;2022-12-26T01:12:25;101499.63;;;-1.72;59.39
75409;BME280;63979;55.644;37.734;2022-12-26T01:17:27;101496.19;;;-1.64;60.31
75409;BME280;63979;55.644;37.734;2022-12-26T01:22:28;101493.50;;;-1.73;59.45
75409;BME280;63979;55.644;37.734;2022-12-26T01:27:29;101503.09;;;-1.72;59.80
75409;BME280;63979;55.644;37.734;2022-12-26T01:32:30;101499.69;;;-1.62;59.98
75409;BME280;63979;55.644;37.734;2022-12-26T01:37:30;101496.22;;;-1.58;59.49
75409;BME280;63979;55.644;37.734;2022-12-26T01:42:37;101497.13;;;-1.55;58.87
75409;BME280;63979;55.644;37.734;2022-12-26T01:47:44;101469.84;;;-1.83;58.97
75409;BME280;63979;55.644;37.734;2022-12-26T01:52:47;101507.56;;;-1.60;59.65
75409;BME280;63979;55.644;37.734;2022-12-26T01:58:03;101505.75;;;-1.69;58.14
75409;BME280;63979;55.644;37.734;2022-12-26T02:03:07;101509.22;;;-1.73;60.81
75409;BME280;63979;55.644;37.734;2022-12-26T02:08:32;101498.63;;;-1.82;59.79
75409;BME280;63979;55.644;37.734;2022-12-26T02:13:36;101503.88;;;-1.79;59.03
75409;BME280;63979;55.644;37.734;2022-12-26T02:18:37;101509.22;;;-1.73;59.12
75409;BME280;63979;55.644;37.734;2022-12-26T02:34:46;101490.88;;;-1.73;59.13
75409;BME280;63979;55.644;37.734;2022-12-26T02:40:06;101502.25;;;-1.68;58.41
75409;BME280;63979;55.644;37.734;2022-12-26T02:45:27;101501.41;;;-1.64;58.93
75409;BME280;63979;55.644;37.734;2022-12-26T02:56:49;101506.53;;;-1.74;59.68
75409;BME280;63979;55.644;37.734;2022-12-26T03:02:28;101505.75;;;-1.69;60.10
75409;BME280;63979;55.644;37.734;2022-12-26T03:07:50;101502.25;;;-1.68;60.97
75409;BME280;63979;55.644;37.734;2022-12-26T03:13:14;101387.44;;;-2.36;59.40
75409;BME280;63979;55.644;37.734;2022-12-26T03:18:18;101497.81;;;-1.75;59.54
75409;BME280;63979;55.644;37.734;2022-12-26T03:23:20;101508.31;;;-1.73;59.31
75409;BME280;63979;55.644;37.734;2022-12-26T03:28:23;101519.50;;;-1.88;59.50
75409;BME280;63979;55.644;37.734;2022-12-26T03:33:28;101506.44;;;-1.88;61.63
75409;BME280;63979;55.644;37.734;2022-12-26T03:50:39;101485.38;;;-2.02;59.19
75409;BME280;63979;55.644;37.734;2022-12-26T03:56:09;101515.13;;;-1.91;59.76
75409;BME280;63979;55.644;37.734;2022-12-26T04:01:32;101514.28;;;-1.86;60.86
75409;BME280;63979;55.644;37.734;2022-12-26T04:07:18;101509.94;;;-1.86;60.79
75409;BME280;63979;55.644;37.734;2022-12-26T04:12:36;101509.94;;;-1.88;60.13
75409;BME280;63979;55.644;37.734;2022-12-26T04:18:01;101474.78;;;-2.12;60.42
75409;BME280;63979;55.644;37.734;2022-12-26T04:23:44;101530.88;;;-1.86;59.62
75409;BME280;63979;55.644;37.734;2022-12-26T04:29:05;101519.47;;;-1.93;60.13
75409;BME280;63979;55.644;37.734;2022-12-26T04:35:19;101519.44;;;-1.97;59.29
75409;BME280;63979;55.644;37.734;2022-12-26T04:40:19;101482.53;;;-2.23;59.75
75409;BME280;63979;55.644;37.734;2022-12-26T04:45:41;101531.56;;;-2.07;60.18
75409;BME280;63979;55.644;37.734;2022-12-26T04:50:49;101488.53;;;-2.35;59.67
75409;BME280;63979;55.644;37.734;2022-12-26T04:55:51;101539.34;;;-2.10;59.82
75409;BME280;63979;55.644;37.734;2022-12-26T05:00:52;101544.72;;;-1.99;60.64
75409;BME280;63979;55.644;37.734;2022-12-26T05:06:13;101547.31;;;-1.99;61.32
75409;BME280;63979;55.644;37.734;2022-12-26T05:11:33;101553.44;;;-1.99;60.25
75409;BME280;63979;55.644;37.734;2022-12-26T05:16:34;101564.78;;;-1.98;60.49
75409;BME280;63979;55.644;37.734;2022-12-26T05:21:54;101551.53;;;-2.10;59.85
75409;BME280;63979;55.644;37.734;2022-12-26T05:27:15;101547.16;;;-2.13;60.27
75409;BME280;63979;55.644;37.734;2022-12-26T05:32:34;101563.72;;;-2.12;60.72
75409;BME280;63979;55.644;37.734;2022-12-26T05:37:54;101559.28;;;-2.21;59.99
75409;BME280;63979;55.644;37.734;2022-12-26T05:42:54;101557.53;;;-2.21;60.53
75409;BME280;63979;55.644;37.734;2022-12-26T05:47:57;101555.81;;;-2.18;60.75
75409;BME280;63979;55.644;37.734;2022-12-26T05:52:58;101568.00;;;-2.21;60.84
75409;BME280;63979;55.644;37.734;2022-12-26T05:57:59;101559.16;;;-2.32;61.02
75409;BME280;63979;55.644;37.734;2022-12-26T06:03:00;101565.19;;;-2.37;60.56
75409;BME280;63979;55.644;37.734;2022-12-26T06:08:02;101568.66;;;-2.41;60.90
75409;BME280;63979;55.644;37.734;2022-12-26T06:13:03;101557.22;;;-2.48;60.83
75409;BME280;63979;55.644;37.734;2022-12-26T06:18:04;101566.78;;;-2.48;61.19
75409;BME280;63979;55.644;37.734;2022-12-26T06:23:04;101568.41;;;-2.58;61.02
75409;BME280;63979;55.644;37.734;2022-12-26T06:28:06;101587.72;;;-2.47;62.01
75409;BME280;63979;55.644;37.734;2022-12-26T06:33:07;101591.13;;;-2.53;61.29
75409;BME280;63979;55.644;37.734;2022-12-26T06:38:08;101590.16;;;-2.62;61.83
75409;BME280;63979;55.644;37.734;2022-12-26T06:43:09;101567.41;;;-2.68;61.46
75409;BME280;63979;55.644;37.734;2022-12-26T06:48:10;101578.72;;;-2.69;61.95
75409;BME280;63979;55.644;37.734;2022-12-26T06:53:11;101628.69;;;-2.46;61.44
75409;BME280;63979;55.644;37.734;2022-12-26T06:58:13;101624.13;;;-2.61;61.60
75409;BME280;63979;55.644;37.734;2022-12-26T07:03:14;101610.09;;;-2.67;61.67
75409;BME280;63979;55.644;37.734;2022-12-26T07:08:15;101598.81;;;-2.66;61.84
75409;BME280;63979;55.644;37.734;2022-12-26T07:13:16;101625.94;;;-2.57;62.63
75409;BME280;63979;55.644;37.734;2022-12-26T07:18:17;101611.97;;;-2.57;61.99
75409;BME280;63979;55.644;37.734;2022-12-26T07:23:18;101634.13;;;-2.32;61.43
75409;BME280;63979;55.644;37.734;2022-12-26T07:28:19;101631.63;;;-2.22;61.54
75409;BME280;63979;55.644;37.734;2022-12-26T07:33:20;101634.22;;;-2.25;60.51
75409;BME280;63979;55.644;37.734;2022-12-26T07:38:23;101641.44;;;-2.05;60.90
75409;BME280;63979;55.644;37.734;2022-12-26T07:43:24;101638.91;;;-1.98;60.46
75409;BME280;63979;55.644;37.734;2022-12-26T07:48:28;101644.03;;;-2.07;59.98
75409;BME280;63979;55.644;37.734;2022-12-26T07:53:29;101643.94;;;-2.11;60.26
75409;BME280;63979;55.644;37.734;2022-12-26T07:58:30;101624.72;;;-2.16;60.88
75409;BME280;63979;55.644;37.734;2022-12-26T08:03:32;101645.94;;;-1.94;60.56
75409;BME280;63979;55.644;37.734;2022-12-26T08:08:33;101645.16;;;-1.85;60.19
75409;BME280;63979;55.644;37.734;2022-12-26T08:13:34;101649.53;;;-1.84;59.79
75409;BME280;63979;55.644;37.734;2022-12-26T08:18:35;101654.72;;;-1.87;60.38
75409;BME280;63979;55.644;37.734;2022-12-26T08:23:36;101661.69;;;-1.89;59.86
75409;BME280;63979;55.644;37.734;2022-12-26T08:28:37;101647.69;;;-1.91;59.45
75409;BME280;63979;55.644;37.734;2022-12-26T08:33:37;101653.84;;;-1.86;59.93
75409;BME280;63979;55.644;37.734;2022-12-26T08:38:39;101661.81;;;-1.75;60.30
75409;BME280;63979;55.644;37.734;2022-12-26T08:43:40;101646.94;;;-1.81;60.12
75409;BME280;63979;55.644;37.734;2022-12-26T08:48:42;101649.59;;;-1.78;59.97
75409;BME280;63979;55.644;37.734;2022-12-26T08:53:43;101621.44;;;-2.00;59.97
75409;BME280;63979;55.644;37.734;2022-12-26T08:58:45;101652.00;;;-1.96;60.27
75409;BME280;63979;55.644;37.734;2022-12-26T09:03:47;101647.66;;;-1.94;60.24
75409;BME280;63979;55.644;37.734;2022-12-26T09:08:52;101647.78;;;-1.83;60.07
75409;BME280;63979;55.644;37.734;2022-12-26T09:13:54;101650.56;;;-1.70;60.45
75409;BME280;63979;55.644;37.734;2022-12-26T09:18:58;101660.22;;;-1.66;60.81
75409;BME280;63979;55.644;37.734;2022-12-26T09:24:06;101657.59;;;-1.64;61.31
75409;BME280;63979;55.644;37.734;2022-12-26T09:29:12;101610.94;;;-2.03;59.80
75409;BME280;63979;55.644;37.734;2022-12-26T09:34:13;101657.34;;;-1.85;60.92
75409;BME280;63979;55.644;37.734;2022-12-26T09:39:14;101659.00;;;-1.95;61.26
75409;BME280;63979;55.644;37.734;2022-12-26T09:49:24;101624.56;;;-2.29;61.00
75409;BME280;63979;55.644;37.734;2022-12-26T09:54:53;101637.47;;;-2.42;61.55
75409;BME280;63979;55.644;37.734;2022-12-26T09:59:58;101636.72;;;-2.34;61.78
75409;BME280;63979;55.644;37.734;2022-12-26T10:05:01;101632.31;;;-2.38;62.08
75409;BME280;63979;55.644;37.734;2022-12-26T10:11:21;101621.72;;;-2.45;62.05
75409;BME280;63979;55.644;37.734;2022-12-26T10:26:44;101608.78;;;-2.36;60.57
75409;BME280;63979;55.644;37.734;2022-12-26T10:31:57;101626.38;;;-2.25;60.49
75409;BME280;63979;55.644;37.734;2022-12-26T10:37:10;101622.06;;;-2.20;60.00
75409;BME280;63979;55.644;37.734;2022-12-26T10:47:39;101593.38;;;-2.10;59.68
75409;BME280;63979;55.644;37.734;2022-12-26T10:52:41;101610.09;;;-2.02;59.35
75409;BME280;63979;55.644;37.734;2022-12-26T10:57:45;101601.44;;;-1.95;59.61
75409;BME280;63979;55.644;37.734;2022-12-26T11:08:37;101603.06;;;-2.06;59.83
75409;BME280;63979;55.644;37.734;2022-12-26T11:13:45;101602.78;;;-2.28;60.29
75409;BME280;63979;55.644;37.734;2022-12-26T11:18:48;101611.56;;;-2.24;61.18
75409;BME280;63979;55.644;37.734;2022-12-26T11:23:52;101601.63;;;-2.49;61.27
75409;BME280;63979;55.644;37.734;2022-12-26T11:29:17;101608.16;;;-2.15;60.03
75409;BME280;63979;55.644;37.734;2022-12-26T11:34:32;101605.66;;;-2.08;60.50
75409;BME280;63979;55.644;37.734;2022-12-26T11:39:36;101596.00;;;-2.10;59.83
75409;BME280;63979;55.644;37.734;2022-12-26T11:44:41;101593.53;;;-2.01;59.78
75409;BME280;63979;55.644;37.734;2022-12-26T11:54:58;101604.44;;;-2.36;61.34
75409;BME280;63979;55.644;37.734;2022-12-26T12:00:17;101515.84;;;-2.79;61.34
75409;BME280;63979;55.644;37.734;2022-12-26T12:10:52;101603.41;;;-2.45;61.91
75409;BME280;63979;55.644;37.734;2022-12-26T12:21:38;101603.50;;;-2.42;61.90
75409;BME280;63979;55.644;37.734;2022-12-26T12:32:30;101599.00;;;-2.51;62.67
75409;BME280;63979;55.644;37.734;2022-12-26T12:43:39;101558.44;;;-2.87;62.96
75409;BME280;63979;55.644;37.734;2022-12-26T12:48:52;101593.50;;;-2.72;62.44
75409;BME280;63979;55.644;37.734;2022-12-26T13:00:23;101603.75;;;-2.85;63.51
75409;BME280;63979;55.644;37.734;2022-12-26T13:10:26;101595.06;;;-2.84;63.74
75409;BME280;63979;55.644;37.734;2022-12-26T13:15:37;101580.06;;;-2.97;64.84
75409;BME280;63979;55.644;37.734;2022-12-26T13:25:46;101592.41;;;-2.85;65.56
75409;BME280;63979;55.644;37.734;2022-12-26T13:30:54;101576.56;;;-2.99;65.48
75409;BME280;63979;55.644;37.734;2022-12-26T13:35:57;101600.41;;;-2.77;65.65
75409;BME280;63979;55.644;37.734;2022-12-26T13:41:01;101597.81;;;-2.74;64.83
75409;BME280;63979;55.644;37.734;2022-12-26T13:51:44;101608.28;;;-2.74;65.51
75409;BME280;63979;55.644;37.734;2022-12-26T13:57:20;101603.78;;;-2.83;65.68
75409;BME280;63979;55.644;37.734;2022-12-26T14:07:46;101606.38;;;-2.83;65.81
75409;BME280;63979;55.644;37.734;2022-12-26T14:13:01;101596.81;;;-2.83;65.81
75409;BME280;63979;55.644;37.734;2022-12-26T14:18:18;101587.19;;;-2.85;65.78
75409;BME280;63979;55.644;37.734;2022-12-26T14:23:42;101588.81;;;-2.93;65.89
75409;BME280;63979;55.644;37.734;2022-12-26T14:29:12;101598.25;;;-3.03;66.25
75409;BME280;63979;55.644;37.734;2022-12-26T14:34:33;101585.22;;;-3.01;65.66
75409;BME280;63979;55.644;37.734;2022-12-26T15:16:58;101567.88;;;-2.98;66.12
75409;BME280;63979;55.644;37.734;2022-12-26T15:22:39;101554.75;;;-3.01;66.42
75409;BME280;63979;55.644;37.734;2022-12-26T15:33:09;101539.84;;;-3.09;66.96
75409;BME280;63979;55.644;37.734;2022-12-26T15:54:36;101515.59;;;-3.57;67.02
75409;BME280;63979;55.644;37.734;2022-12-26T16:05:32;101541.03;;;-3.45;67.73
75409;BME280;63979;55.644;37.734;2022-12-26T16:10:35;101545.31;;;-3.49;67.60
75409;BME280;63979;55.644;37.734;2022-12-26T16:15:56;101541.75;;;-3.54;67.86
75409;BME280;63979;55.644;37.734;2022-12-26T16:21:00;101539.78;;;-3.68;67.92
75409;BME280;63979;55.644;37.734;2022-12-26T16:26:26;101540.56;;;-3.74;68.65
75409;BME280;63979;55.644;37.734;2022-12-26T16:31:29;101537.03;;;-3.76;68.54
75409;BME280;63979;55.644;37.734;2022-12-26T16:36:33;101513.75;;;-4.15;66.81
75409;BME280;63979;55.644;37.734;2022-12-26T16:46:59;101545.81;;;-4.18;68.15
75409;BME280;63979;55.644;37.734;2022-12-26T16:52:01;101554.63;;;-4.13;69.07
75409;BME280;63979;55.644;37.734;2022-12-26T16:57:17;101519.31;;;-4.42;70.13
75409;BME280;63979;55.644;37.734;2022-12-26T17:02:28;101540.53;;;-4.21;71.21
75409;BME280;63979;55.644;37.734;2022-12-26T17:07:31;101536.84;;;-4.33;72.10
75409;BME280;63979;55.644;37.734;2022-12-26T17:12:37;101529.75;;;-4.41;73.16
75409;BME280;63979;55.644;37.734;2022-12-26T17:17:38;101531.47;;;-4.41;71.79
75409;BME280;63979;55.644;37.734;2022-12-26T17:22:40;101535.81;;;-4.42;72.12
75409;BME280;63979;55.644;37.734;2022-12-26T17:27:41;101527.34;;;-4.30;72.52
75409;BME280;63979;55.644;37.734;2022-12-26T17:32:43;101521.22;;;-4.32;71.46
75409;BME280;63979;55.644;37.734;2022-12-26T17:37:48;101519.63;;;-4.24;70.99
75409;BME280;63979;55.644;37.734;2022-12-26T17:42:52;101508.22;;;-4.30;70.88
75409;BME280;63979;55.644;37.734;2022-12-26T17:47:55;101488.06;;;-4.41;70.49
75409;BME280;63979;55.644;37.734;2022-12-26T17:53:30;101516.34;;;-4.15;69.98
75409;BME280;63979;55.644;37.734;2022-12-26T17:58:33;101450.72;;;-4.41;69.40
75409;BME280;63979;55.644;37.734;2022-12-26T18:03:35;101497.09;;;-4.22;69.25
75409;BME280;63979;55.644;37.734;2022-12-26T18:08:38;101502.72;;;-3.99;69.05
75409;BME280;63979;55.644;37.734;2022-12-26T18:13:40;101510.78;;;-3.85;67.87
75409;BME280;63979;55.644;37.734;2022-12-26T18:18:45;101496.06;;;-3.82;67.92
75409;BME280;63979;55.644;37.734;2022-12-26T18:23:46;101488.34;;;-3.77;67.78
75409;BME280;63979;55.644;37.734;2022-12-26T18:28:48;101481.44;;;-3.72;67.03
75409;BME280;63979;55.644;37.734;2022-12-26T18:33:49;101477.91;;;-3.77;66.89
75409;BME280;63979;55.644;37.734;2022-12-26T18:38:50;101470.88;;;-3.81;67.21
75409;BME280;63979;55.644;37.734;2022-12-26T18:43:52;101471.69;;;-3.82;67.26
75409;BME280;63979;55.644;37.734;2022-12-26T18:48:53;101463.16;;;-3.73;67.13
75409;BME280;63979;55.644;37.734;2022-12-26T18:53:56;101461.47;;;-3.71;66.82
75409;BME280;63979;55.644;37.734;2022-12-26T18:58:57;101452.53;;;-3.84;66.96
75409;BME280;63979;55.644;37.734;2022-12-26T19:03:58;101472.47;;;-3.89;66.45
75409;BME280;63979;55.644;37.734;2022-12-26T19:08:59;101433.91;;;-4.09;66.82
75409;BME280;63979;55.644;37.734;2022-12-26T19:14:02;101455.88;;;-3.93;66.78
75409;BME280;63979;55.644;37.734;2022-12-26T19:19:04;101459.38;;;-3.92;67.75
75409;BME280;63979;55.644;37.734;2022-12-26T19:24:06;101451.75;;;-3.80;68.00
75409;BME280;63979;55.644;37.734;2022-12-26T19:29:07;101452.72;;;-3.75;67.82
75409;BME280;63979;55.644;37.734;2022-12-26T19:34:09;101439.81;;;-3.64;67.15
75409;BME280;63979;55.644;37.734;2022-12-26T19:39:10;101435.41;;;-3.70;66.71
75409;BME280;63979;55.644;37.734;2022-12-26T19:44:11;101415.34;;;-3.72;66.95
75409;BME280;63979;55.644;37.734;2022-12-26T19:49:12;101430.13;;;-3.73;66.69
75409;BME280;63979;55.644;37.734;2022-12-26T19:54:13;101413.44;;;-3.83;66.84
75409;BME280;63979;55.644;37.734;2022-12-26T19:59:14;101414.41;;;-3.79;67.33
75409;BME280;63979;55.644;37.734;2022-12-26T20:04:15;101409.19;;;-3.79;66.88
75409;BME280;63979;55.644;37.734;2022-12-26T20:09:16;101413.16;;;-4.02;67.42
75409;BME280;63979;55.644;37.734;2022-12-26T20:14:18;101400.97;;;-4.03;67.34
75409;BME280;63979;55.644;37.734;2022-12-26T20:19:21;101384.38;;;-4.09;67.40
75409;BME280;63979;55.644;37.734;2022-12-26T20:24:23;101363.22;;;-4.25;67.37
75409;BME280;63979;55.644;37.734;2022-12-26T20:29:25;101329.94;;;-4.43;67.77
75409;BME280;63979;55.644;37.734;2022-12-26T20:34:26;101392.88;;;-4.19;67.37
75409;BME280;63979;55.644;37.734;2022-12-26T20:39:27;101386.72;;;-4.24;68.57
75409;BME280;63979;55.644;37.734;2022-12-26T20:44:28;101389.19;;;-4.31;69.08
75409;BME280;63979;55.644;37.734;2022-12-26T20:49:29;101342.91;;;-4.46;68.45
75409;BME280;63979;55.644;37.734;2022-12-26T20:54:30;101366.72;;;-4.23;68.71
75409;BME280;63979;55.644;37.734;2022-12-26T20:59:31;101345.75;;;-4.32;69.25
75409;BME280;63979;55.644;37.734;2022-12-26T21:04:31;101365.84;;;-4.25;69.25
75409;BME280;63979;55.644;37.734;2022-12-26T21:09:32;101332.66;;;-4.35;68.89
75409;BME280;63979;55.644;37.734;2022-12-26T21:14:33;101380.53;;;-4.29;68.09
75409;BME280;63979;55.644;37.734;2022-12-26T21:19:34;101387.66;;;-4.19;67.87
75409;BME280;63979;55.644;37.734;2022-12-26T21:24:37;101387.50;;;-4.29;66.45
75409;BME280;63979;55.644;37.734;2022-12-26T21:29:38;101381.88;;;-4.52;65.91
75409;BME280;63979;55.644;37.734;2022-12-26T21:34:39;101383.56;;;-4.54;66.42
75409;BME280;63979;55.644;37.734;2022-12-26T21:39:41;101374.91;;;-4.53;66.27
75409;BME280;63979;55.644;37.734;2022-12-26T21:44:43;101354.34;;;-4.38;66.10
75409;BME280;63979;55.644;37.734;2022-12-26T21:49:43;101365.38;;;-4.51;66.62
75409;BME280;63979;55.644;37.734;2022-12-26T21:54:44;101346.91;;;-4.66;66.87
75409;BME280;63979;55.644;37.734;2022-12-26T22:00:05;101341.47;;;-4.79;67.09
75409;BME280;63979;55.644;37.734;2022-12-26T22:05:07;101350.38;;;-4.66;68.04
75409;BME280;63979;55.644;37.734;2022-12-26T22:10:09;101340.94;;;-4.59;69.07
75409;BME280;63979;55.644;37.734;2022-12-26T22:15:33;101341.78;;;-4.60;67.94
75409;BME280;63979;55.644;37.734;2022-12-26T22:20:53;101348.25;;;-4.87;66.84
75409;BME280;63979;55.644;37.734;2022-12-26T22:25:55;101340.09;;;-5.05;68.88
75409;BME280;63979;55.644;37.734;2022-12-26T22:30:57;101325.41;;;-5.03;68.60
75409;BME280;63979;55.644;37.734;2022-12-26T22:36:05;101320.13;;;-5.06;69.51
75409;BME280;63979;55.644;37.734;2022-12-26T22:41:07;101321.47;;;-5.26;68.82
75409;BME280;63979;55.644;37.734;2022-12-26T22:46:08;101315.38;;;-5.27;68.99
75409;BME280;63979;55.644;37.734;2022-12-26T22:51:16;101308.25;;;-5.37;68.66
75409;BME280;63979;55.644;37.734;2022-12-26T22:56:17;101262.53;;;-5.68;69.19
75409;BME280;63979;55.644;37.734;2022-12-26T23:01:18;101301.25;;;-5.41;69.50
75409;BME280;63979;55.644;37.734;2022-12-26T23:06:24;101285.31;;;-5.56;68.82
75409;BME280;63979;55.644;37.734;2022-12-26T23:11:29;101295.03;;;-5.48;68.22
75409;BME280;63979;55.644;37.734;2022-12-26T23:17:06;101290.03;;;-5.37;67.49
75409;BME280;63979;55.644;37.734;2022-12-26T23:22:08;101291.53;;;-5.50;68.61
75409;BME280;63979;55.644;37.734;2022-12-26T23:27:09;101290.13;;;-5.32;67.84
75409;BME280;63979;55.644;37.734;2022-12-26T23:32:29;101282.00;;;-5.49;67.79
75409;BME280;63979;55.644;37.734;2022-12-26T23:37:30;101265.78;;;-5.36;67.95
75409;BME280;63979;55.644;37.734;2022-12-26T23:42:32;101269.19;;;-5.40;68.19
75409;BME280;63979;55.644;37.734;2022-12-26T23:47:36;101243.91;;;-5.47;68.42
75409;BME280;63979;55.644;37.734;2022-12-26T23:52:38;101228.03;;;-5.59;68.63
75409;BME280;63979;55.644;37.734;2022-12-26T23:57:39;101243.88;;;-5.49;69.46
